sensor_id;sensor_type;location;lat;lon;timestamp;P1;durP1;ratioP1;P2;durP2;ratioP2
22995;SDS011;11664;49.774;8.650;2022-07-22T00:02:11;5.00;;;4.70;;
22995;SDS011;11664;49.774;8.650;2022-07-22T00:04:37;4.43;;;4.18;;
22995;SDS011;11664;49.774;8.650;2022-07-22T00:07:03;5.82;;;5.40;;
22995;SDS011;11664;49.774;8.650;2022-07-22T00:09:29;5.57;;;5.30;;
22995;SDS011;11664;49.774;8.650;2022-07-22T00:11:55;6.47;;;5.95;;
22995;SDS011;11664;49.774;8.650;2022-07-22T00:14:21;9.05;;;8.43;;
22995;SDS011;11664;49.774;8.650;2022-07-22T00:16:47;10.45;;;9.95;;
22995;SDS011;11664;49.774;8.650;2022-07-22T00:19:13;6.38;;;5.97;;
22995;SDS011;11664;49.774;8.650;2022-07-22T00:21:39;7.30;;;6.90;;
22995;SDS011;11664;49.774;8.650;2022-07-22T00:24:05;8.95;;;8.35;;
22995;SDS011;11664;49.774;8.650;2022-07-22T00:26:31;9.05;;;8.50;;
22995;SDS011;11664;49.774;8.650;2022-07-22T00:28:58;8.55;;;8.15;;
22995;SDS011;11664;49.774;8.650;2022-07-22T00:31:24;10.68;;;9.75;;
22995;SDS011;11664;49.774;8.650;2022-07-22T00:33:50;10.93;;;10.32;;
22995;SDS011;11664;49.774;8.650;2022-07-22T00:36:16;13.63;;;12.85;;
22995;SDS011;11664;49.774;8.650;2022-07-22T00:38:42;16.75;;;15.90;;
22995;SDS011;11664;49.774;8.650;2022-07-22T00:41:08;11.98;;;11.38;;
22995;SDS011;11664;49.774;8.650;2022-07-22T00:46:15;15.38;;;14.27;;
22995;SDS011;11664;49.774;8.650;2022-07-22T00:48:41;13.10;;;12.38;;
22995;SDS011;11664;49.774;8.650;2022-07-22T00:51:07;17.00;;;15.93;;
22995;SDS011;11664;49.774;8.650;2022-07-22T00:53:34;10.40;;;9.77;;
22995;SDS011;11664;49.774;8.650;2022-07-22T00:56:00;8.45;;;7.93;;
22995;SDS011;11664;49.774;8.650;2022-07-22T00:58:26;11.75;;;11.13;;
22995;SDS011;11664;49.774;8.650;2022-07-22T01:00:52;11.35;;;10.70;;
22995;SDS011;11664;49.774;8.650;2022-07-22T01:03:18;18.92;;;17.58;;
22995;SDS011;11664;49.774;8.650;2022-07-22T01:05:44;8.73;;;8.25;;
22995;SDS011;11664;49.774;8.650;2022-07-22T01:08:10;11.38;;;10.75;;
22995;SDS011;11664;49.774;8.650;2022-07-22T01:10:36;10.35;;;9.65;;
22995;SDS011;11664;49.774;8.650;2022-07-22T01:13:02;23.52;;;22.30;;
22995;SDS011;11664;49.774;8.650;2022-07-22T01:15:28;24.65;;;23.33;;
22995;SDS011;11664;49.774;8.650;2022-07-22T01:17:54;17.70;;;16.65;;
22995;SDS011;11664;49.774;8.650;2022-07-22T01:20:20;8.82;;;8.32;;
22995;SDS011;11664;49.774;8.650;2022-07-22T01:22:46;10.80;;;9.90;;
22995;SDS011;11664;49.774;8.650;2022-07-22T01:25:12;11.45;;;10.65;;
22995;SDS011;11664;49.774;8.650;2022-07-22T01:27:38;13.68;;;13.00;;
22995;SDS011;11664;49.774;8.650;2022-07-22T01:30:04;15.52;;;14.63;;
22995;SDS011;11664;49.774;8.650;2022-07-22T01:32:30;17.65;;;16.55;;
22995;SDS011;11664;49.774;8.650;2022-07-22T01:34:56;20.48;;;19.23;;
22995;SDS011;11664;49.774;8.650;2022-07-22T01:37:23;21.23;;;20.10;;
22995;SDS011;11664;49.774;8.650;2022-07-22T01:39:49;19.88;;;18.67;;
22995;SDS011;11664;49.774;8.650;2022-07-22T01:42:15;16.95;;;15.95;;
22995;SDS011;11664;49.774;8.650;2022-07-22T01:44:41;16.38;;;15.48;;
22995;SDS011;11664;49.774;8.650;2022-07-22T01:47:08;12.82;;;12.23;;
22995;SDS011;11664;49.774;8.650;2022-07-22T01:49:34;11.60;;;11.05;;
22995;SDS011;11664;49.774;8.650;2022-07-22T01:52:00;11.45;;;10.85;;
22995;SDS011;11664;49.774;8.650;2022-07-22T01:54:26;11.80;;;11.13;;
22995;SDS011;11664;49.774;8.650;2022-07-22T01:56:52;17.52;;;16.38;;
22995;SDS011;11664;49.774;8.650;2022-07-22T01:59:18;22.23;;;20.90;;
22995;SDS011;11664;49.774;8.650;2022-07-22T02:01:44;22.83;;;21.65;;
22995;SDS011;11664;49.774;8.650;2022-07-22T02:04:10;23.27;;;22.02;;
22995;SDS011;11664;49.774;8.650;2022-07-22T02:06:36;25.85;;;24.50;;
22995;SDS011;11664;49.774;8.650;2022-07-22T02:09:03;33.55;;;31.67;;
22995;SDS011;11664;49.774;8.650;2022-07-22T02:11:29;33.05;;;31.30;;
22995;SDS011;11664;49.774;8.650;2022-07-22T02:13:55;34.05;;;32.25;;
22995;SDS011;11664;49.774;8.650;2022-07-22T02:16:21;26.95;;;25.55;;
22995;SDS011;11664;49.774;8.650;2022-07-22T02:18:47;21.13;;;20.10;;
22995;SDS011;11664;49.774;8.650;2022-07-22T02:21:13;27.20;;;25.52;;
22995;SDS011;11664;49.774;8.650;2022-07-22T02:23:39;20.48;;;19.45;;
22995;SDS011;11664;49.774;8.650;2022-07-22T02:26:05;21.15;;;20.10;;
22995;SDS011;11664;49.774;8.650;2022-07-22T02:28:31;22.00;;;20.70;;
22995;SDS011;11664;49.774;8.650;2022-07-22T02:30:57;18.13;;;16.60;;
22995;SDS011;11664;49.774;8.650;2022-07-22T02:33:23;16.48;;;15.60;;
22995;SDS011;11664;49.774;8.650;2022-07-22T02:35:49;14.65;;;13.82;;
22995;SDS011;11664;49.774;8.650;2022-07-22T02:38:15;17.30;;;16.38;;
22995;SDS011;11664;49.774;8.650;2022-07-22T02:40:41;26.00;;;23.95;;
22995;SDS011;11664;49.774;8.650;2022-07-22T02:43:07;19.98;;;18.85;;
22995;SDS011;11664;49.774;8.650;2022-07-22T02:45:33;13.63;;;12.82;;
22995;SDS011;11664;49.774;8.650;2022-07-22T02:47:59;13.35;;;12.65;;
22995;SDS011;11664;49.774;8.650;2022-07-22T02:50:25;29.85;;;28.08;;
22995;SDS011;11664;49.774;8.650;2022-07-22T02:52:52;25.35;;;23.77;;
22995;SDS011;11664;49.774;8.650;2022-07-22T02:55:18;11.20;;;10.63;;
22995;SDS011;11664;49.774;8.650;2022-07-22T02:57:44;12.27;;;11.48;;
22995;SDS011;11664;49.774;8.650;2022-07-22T03:00:11;9.90;;;9.00;;
22995;SDS011;11664;49.774;8.650;2022-07-22T03:02:38;8.85;;;8.35;;
22995;SDS011;11664;49.774;8.650;2022-07-22T03:05:04;9.73;;;8.95;;
22995;SDS011;11664;49.774;8.650;2022-07-22T03:07:31;9.68;;;9.18;;
22995;SDS011;11664;49.774;8.650;2022-07-22T03:09:57;13.35;;;12.65;;
22995;SDS011;11664;49.774;8.650;2022-07-22T03:12:23;18.13;;;17.15;;
22995;SDS011;11664;49.774;8.650;2022-07-22T03:14:50;29.85;;;27.77;;
22995;SDS011;11664;49.774;8.650;2022-07-22T03:17:16;20.98;;;19.90;;
22995;SDS011;11664;49.774;8.650;2022-07-22T03:19:42;18.85;;;17.75;;
22995;SDS011;11664;49.774;8.650;2022-07-22T03:22:08;24.95;;;23.40;;
22995;SDS011;11664;49.774;8.650;2022-07-22T03:24:34;16.35;;;15.50;;
22995;SDS011;11664;49.774;8.650;2022-07-22T03:27:00;30.08;;;28.23;;
22995;SDS011;11664;49.774;8.650;2022-07-22T03:29:26;20.73;;;19.65;;
22995;SDS011;11664;49.774;8.650;2022-07-22T03:31:52;13.63;;;12.73;;
22995;SDS011;11664;49.774;8.650;2022-07-22T03:34:18;18.92;;;17.95;;
22995;SDS011;11664;49.774;8.650;2022-07-22T03:36:44;18.92;;;17.85;;
22995;SDS011;11664;49.774;8.650;2022-07-22T03:39:10;13.75;;;12.82;;
22995;SDS011;11664;49.774;8.650;2022-07-22T03:41:36;15.27;;;14.23;;
22995;SDS011;11664;49.774;8.650;2022-07-22T03:44:02;22.13;;;20.90;;
22995;SDS011;11664;49.774;8.650;2022-07-22T03:46:28;20.38;;;19.23;;
22995;SDS011;11664;49.774;8.650;2022-07-22T03:48:54;29.50;;;28.00;;
22995;SDS011;11664;49.774;8.650;2022-07-22T03:51:20;28.05;;;26.45;;
22995;SDS011;11664;49.774;8.650;2022-07-22T03:53:46;30.65;;;28.52;;
22995;SDS011;11664;49.774;8.650;2022-07-22T03:56:12;31.52;;;29.67;;
22995;SDS011;11664;49.774;8.650;2022-07-22T03:58:38;17.75;;;16.85;;
22995;SDS011;11664;49.774;8.650;2022-07-22T04:01:04;9.85;;;9.18;;
22995;SDS011;11664;49.774;8.650;2022-07-22T04:03:30;10.20;;;9.60;;
22995;SDS011;11664;49.774;8.650;2022-07-22T04:05:56;10.93;;;10.27;;
22995;SDS011;11664;49.774;8.650;2022-07-22T04:08:22;18.35;;;17.38;;
22995;SDS011;11664;49.774;8.650;2022-07-22T04:10:48;23.55;;;22.27;;
22995;SDS011;11664;49.774;8.650;2022-07-22T04:13:14;15.40;;;14.55;;
22995;SDS011;11664;49.774;8.650;2022-07-22T04:15:40;16.85;;;15.73;;
22995;SDS011;11664;49.774;8.650;2022-07-22T04:18:06;25.60;;;24.27;;
22995;SDS011;11664;49.774;8.650;2022-07-22T04:20:32;40.00;;;37.85;;
22995;SDS011;11664;49.774;8.650;2022-07-22T04:22:58;33.60;;;31.88;;
22995;SDS011;11664;49.774;8.650;2022-07-22T04:25:24;25.17;;;23.85;;
22995;SDS011;11664;49.774;8.650;2022-07-22T04:27:50;26.38;;;24.98;;
22995;SDS011;11664;49.774;8.650;2022-07-22T04:30:17;27.13;;;25.48;;
22995;SDS011;11664;49.774;8.650;2022-07-22T04:32:43;27.85;;;26.20;;
22995;SDS011;11664;49.774;8.650;2022-07-22T04:35:09;23.13;;;21.85;;
22995;SDS011;11664;49.774;8.650;2022-07-22T04:37:35;19.40;;;18.38;;
22995;SDS011;11664;49.774;8.650;2022-07-22T04:40:01;16.00;;;15.18;;
22995;SDS011;11664;49.774;8.650;2022-07-22T04:42:27;11.75;;;11.05;;
22995;SDS011;11664;49.774;8.650;2022-07-22T04:44:53;9.70;;;9.05;;
22995;SDS011;11664;49.774;8.650;2022-07-22T04:47:19;11.00;;;10.35;;
22995;SDS011;11664;49.774;8.650;2022-07-22T04:49:45;13.52;;;12.82;;
22995;SDS011;11664;49.774;8.650;2022-07-22T04:52:11;22.40;;;21.27;;
22995;SDS011;11664;49.774;8.650;2022-07-22T04:54:37;10.55;;;9.95;;
22995;SDS011;11664;49.774;8.650;2022-07-22T04:57:03;8.10;;;7.60;;
22995;SDS011;11664;49.774;8.650;2022-07-22T04:59:29;9.77;;;9.05;;
22995;SDS011;11664;49.774;8.650;2022-07-22T05:01:55;13.70;;;12.52;;
22995;SDS011;11664;49.774;8.650;2022-07-22T05:04:21;8.45;;;8.05;;
22995;SDS011;11664;49.774;8.650;2022-07-22T05:06:47;13.10;;;12.38;;
22995;SDS011;11664;49.774;8.650;2022-07-22T05:09:13;14.02;;;13.25;;
22995;SDS011;11664;49.774;8.650;2022-07-22T05:11:39;10.07;;;9.57;;
22995;SDS011;11664;49.774;8.650;2022-07-22T05:14:05;5.10;;;4.90;;
22995;SDS011;11664;49.774;8.650;2022-07-22T05:16:31;13.27;;;12.57;;
22995;SDS011;11664;49.774;8.650;2022-07-22T05:18:57;5.00;;;4.68;;
22995;SDS011;11664;49.774;8.650;2022-07-22T05:21:23;64.38;;;60.97;;
22995;SDS011;11664;49.774;8.650;2022-07-22T05:23:49;10.60;;;9.98;;
22995;SDS011;11664;49.774;8.650;2022-07-22T05:26:15;5.13;;;4.68;;
22995;SDS011;11664;49.774;8.650;2022-07-22T05:28:41;11.75;;;10.88;;
22995;SDS011;11664;49.774;8.650;2022-07-22T05:31:07;10.77;;;9.98;;
22995;SDS011;11664;49.774;8.650;2022-07-22T05:33:33;7.32;;;6.90;;
22995;SDS011;11664;49.774;8.650;2022-07-22T05:35:59;15.63;;;14.82;;
22995;SDS011;11664;49.774;8.650;2022-07-22T05:38:25;24.33;;;22.98;;
22995;SDS011;11664;49.774;8.650;2022-07-22T05:40:52;43.28;;;40.97;;
22995;SDS011;11664;49.774;8.650;2022-07-22T05:43:18;19.77;;;18.75;;
22995;SDS011;11664;49.774;8.650;2022-07-22T05:45:44;8.13;;;7.53;;
22995;SDS011;11664;49.774;8.650;2022-07-22T05:48:10;9.25;;;8.77;;
22995;SDS011;11664;49.774;8.650;2022-07-22T05:50:36;25.33;;;23.63;;
22995;SDS011;11664;49.774;8.650;2022-07-22T05:53:02;9.32;;;8.48;;
22995;SDS011;11664;49.774;8.650;2022-07-22T05:55:28;7.65;;;7.05;;
22995;SDS011;11664;49.774;8.650;2022-07-22T05:57:54;6.63;;;6.22;;
22995;SDS011;11664;49.774;8.650;2022-07-22T06:00:21;6.05;;;5.68;;
22995;SDS011;11664;49.774;8.650;2022-07-22T06:02:47;10.40;;;9.77;;
22995;SDS011;11664;49.774;8.650;2022-07-22T06:05:13;7.57;;;7.15;;
22995;SDS011;11664;49.774;8.650;2022-07-22T06:07:39;8.75;;;8.23;;
22995;SDS011;11664;49.774;8.650;2022-07-22T06:10:05;13.90;;;13.18;;
22995;SDS011;11664;49.774;8.650;2022-07-22T06:12:31;5.25;;;4.95;;
22995;SDS011;11664;49.774;8.650;2022-07-22T06:14:57;5.22;;;4.70;;
22995;SDS011;11664;49.774;8.650;2022-07-22T06:17:23;9.05;;;5.97;;
22995;SDS011;11664;49.774;8.650;2022-07-22T06:19:49;7.70;;;6.47;;
22995;SDS011;11664;49.774;8.650;2022-07-22T06:22:15;6.25;;;5.72;;
22995;SDS011;11664;49.774;8.650;2022-07-22T06:24:42;5.85;;;5.35;;
22995;SDS011;11664;49.774;8.650;2022-07-22T06:27:09;7.53;;;6.97;;
22995;SDS011;11664;49.774;8.650;2022-07-22T06:29:35;6.88;;;6.40;;
22995;SDS011;11664;49.774;8.650;2022-07-22T06:32:01;3.83;;;3.53;;
22995;SDS011;11664;49.774;8.650;2022-07-22T06:34:27;7.47;;;7.07;;
22995;SDS011;11664;49.774;8.650;2022-07-22T06:36:54;6.88;;;6.38;;
22995;SDS011;11664;49.774;8.650;2022-07-22T06:39:20;5.75;;;5.43;;
22995;SDS011;11664;49.774;8.650;2022-07-22T06:41:46;4.88;;;4.63;;
22995;SDS011;11664;49.774;8.650;2022-07-22T06:44:13;4.53;;;4.25;;
22995;SDS011;11664;49.774;8.650;2022-07-22T06:46:39;5.35;;;4.90;;
22995;SDS011;11664;49.774;8.650;2022-07-22T06:49:05;6.63;;;6.22;;
22995;SDS011;11664;49.774;8.650;2022-07-22T06:51:31;5.80;;;5.28;;
22995;SDS011;11664;49.774;8.650;2022-07-22T06:53:58;4.88;;;4.57;;
22995;SDS011;11664;49.774;8.650;2022-07-22T06:56:24;8.18;;;7.78;;
22995;SDS011;11664;49.774;8.650;2022-07-22T06:58:50;10.55;;;9.95;;
22995;SDS011;11664;49.774;8.650;2022-07-22T07:01:16;8.25;;;7.75;;
22995;SDS011;11664;49.774;8.650;2022-07-22T07:03:42;6.70;;;6.30;;
22995;SDS011;11664;49.774;8.650;2022-07-22T07:06:09;5.88;;;5.38;;
22995;SDS011;11664;49.774;8.650;2022-07-22T07:08:41;5.30;;;4.75;;
22995;SDS011;11664;49.774;8.650;2022-07-22T07:11:07;4.72;;;4.43;;
22995;SDS011;11664;49.774;8.650;2022-07-22T07:13:33;4.05;;;3.75;;
22995;SDS011;11664;49.774;8.650;2022-07-22T07:15:59;5.82;;;5.43;;
22995;SDS011;11664;49.774;8.650;2022-07-22T07:18:25;5.63;;;5.32;;
22995;SDS011;11664;49.774;8.650;2022-07-22T07:20:51;6.47;;;6.07;;
22995;SDS011;11664;49.774;8.650;2022-07-22T07:23:17;4.78;;;4.57;;
22995;SDS011;11664;49.774;8.650;2022-07-22T07:25:44;5.45;;;5.15;;
22995;SDS011;11664;49.774;8.650;2022-07-22T07:28:10;4.65;;;4.35;;
22995;SDS011;11664;49.774;8.650;2022-07-22T07:30:35;4.30;;;4.10;;
22995;SDS011;11664;49.774;8.650;2022-07-22T07:33:01;5.22;;;4.85;;
22995;SDS011;11664;49.774;8.650;2022-07-22T07:35:28;7.05;;;5.53;;
22995;SDS011;11664;49.774;8.650;2022-07-22T07:37:54;4.80;;;4.50;;
22995;SDS011;11664;49.774;8.650;2022-07-22T07:40:20;4.85;;;4.43;;
22995;SDS011;11664;49.774;8.650;2022-07-22T07:42:46;6.25;;;5.75;;
22995;SDS011;11664;49.774;8.650;2022-07-22T07:45:12;15.68;;;14.80;;
22995;SDS011;11664;49.774;8.650;2022-07-22T07:47:39;19.85;;;18.73;;
22995;SDS011;11664;49.774;8.650;2022-07-22T07:50:05;17.30;;;16.30;;
22995;SDS011;11664;49.774;8.650;2022-07-22T07:52:36;6.00;;;5.45;;
22995;SDS011;11664;49.774;8.650;2022-07-22T07:55:02;4.82;;;4.38;;
22995;SDS011;11664;49.774;8.650;2022-07-22T07:57:28;4.00;;;3.80;;
22995;SDS011;11664;49.774;8.650;2022-07-22T07:59:54;6.70;;;6.20;;
22995;SDS011;11664;49.774;8.650;2022-07-22T08:02:20;15.40;;;6.68;;
22995;SDS011;11664;49.774;8.650;2022-07-22T08:04:46;7.60;;;7.10;;
22995;SDS011;11664;49.774;8.650;2022-07-22T08:07:12;4.82;;;4.50;;
22995;SDS011;11664;49.774;8.650;2022-07-22T08:09:38;9.50;;;8.63;;
22995;SDS011;11664;49.774;8.650;2022-07-22T08:12:05;11.00;;;10.20;;
22995;SDS011;11664;49.774;8.650;2022-07-22T08:14:31;10.23;;;9.70;;
22995;SDS011;11664;49.774;8.650;2022-07-22T08:16:57;25.10;;;23.80;;
22995;SDS011;11664;49.774;8.650;2022-07-22T08:19:24;13.55;;;12.77;;
22995;SDS011;11664;49.774;8.650;2022-07-22T08:21:50;7.28;;;6.90;;
22995;SDS011;11664;49.774;8.650;2022-07-22T08:24:16;8.40;;;7.90;;
22995;SDS011;11664;49.774;8.650;2022-07-22T08:26:42;7.93;;;7.43;;
22995;SDS011;11664;49.774;8.650;2022-07-22T08:29:08;10.73;;;10.15;;
22995;SDS011;11664;49.774;8.650;2022-07-22T08:31:35;13.27;;;12.50;;
22995;SDS011;11664;49.774;8.650;2022-07-22T08:34:01;4.75;;;4.55;;
22995;SDS011;11664;49.774;8.650;2022-07-22T08:36:28;5.45;;;5.15;;
22995;SDS011;11664;49.774;8.650;2022-07-22T08:38:54;5.90;;;5.60;;
22995;SDS011;11664;49.774;8.650;2022-07-22T08:41:21;6.43;;;6.13;;
22995;SDS011;11664;49.774;8.650;2022-07-22T08:43:47;7.07;;;6.68;;
22995;SDS011;11664;49.774;8.650;2022-07-22T08:46:13;5.28;;;4.95;;
22995;SDS011;11664;49.774;8.650;2022-07-22T08:48:40;4.53;;;4.20;;
22995;SDS011;11664;49.774;8.650;2022-07-22T08:51:06;5.47;;;5.18;;
22995;SDS011;11664;49.774;8.650;2022-07-22T08:53:32;6.10;;;5.60;;
22995;SDS011;11664;49.774;8.650;2022-07-22T08:55:58;5.95;;;5.55;;
22995;SDS011;11664;49.774;8.650;2022-07-22T08:58:25;4.93;;;4.63;;
22995;SDS011;11664;49.774;8.650;2022-07-22T09:01:07;6.40;;;6.10;;
22995;SDS011;11664;49.774;8.650;2022-07-22T09:03:34;9.00;;;8.48;;
22995;SDS011;11664;49.774;8.650;2022-07-22T09:06:08;7.68;;;7.20;;
22995;SDS011;11664;49.774;8.650;2022-07-22T09:08:49;7.25;;;6.80;;
22995;SDS011;11664;49.774;8.650;2022-07-22T09:11:16;3.90;;;3.70;;
22995;SDS011;11664;49.774;8.650;2022-07-22T09:13:42;4.13;;;3.78;;
22995;SDS011;11664;49.774;8.650;2022-07-22T09:16:09;4.85;;;4.53;;
22995;SDS011;11664;49.774;8.650;2022-07-22T09:18:51;3.95;;;3.65;;
22995;SDS011;11664;49.774;8.650;2022-07-22T09:21:17;7.70;;;4.35;;
22995;SDS011;11664;49.774;8.650;2022-07-22T09:23:43;3.97;;;3.70;;
22995;SDS011;11664;49.774;8.650;2022-07-22T09:26:28;4.65;;;4.28;;
22995;SDS011;11664;49.774;8.650;2022-07-22T09:28:55;6.25;;;5.85;;
22995;SDS011;11664;49.774;8.650;2022-07-22T09:31:25;6.93;;;6.53;;
22995;SDS011;11664;49.774;8.650;2022-07-22T09:33:51;8.73;;;8.27;;
22995;SDS011;11664;49.774;8.650;2022-07-22T09:36:18;16.80;;;15.43;;
22995;SDS011;11664;49.774;8.650;2022-07-22T09:38:45;12.32;;;11.63;;
22995;SDS011;11664;49.774;8.650;2022-07-22T09:41:11;11.27;;;10.57;;
22995;SDS011;11664;49.774;8.650;2022-07-22T09:43:38;9.95;;;9.40;;
22995;SDS011;11664;49.774;8.650;2022-07-22T09:46:05;11.60;;;10.93;;
22995;SDS011;11664;49.774;8.650;2022-07-22T09:48:31;14.65;;;12.10;;
22995;SDS011;11664;49.774;8.650;2022-07-22T09:50:57;13.40;;;12.50;;
22995;SDS011;11664;49.774;8.650;2022-07-22T09:53:26;11.07;;;10.30;;
22995;SDS011;11664;49.774;8.650;2022-07-22T09:55:53;10.02;;;9.52;;
22995;SDS011;11664;49.774;8.650;2022-07-22T09:58:19;11.30;;;10.70;;
22995;SDS011;11664;49.774;8.650;2022-07-22T10:00:45;11.10;;;10.50;;
22995;SDS011;11664;49.774;8.650;2022-07-22T10:03:13;10.50;;;10.00;;
22995;SDS011;11664;49.774;8.650;2022-07-22T10:05:42;9.52;;;8.98;;
22995;SDS011;11664;49.774;8.650;2022-07-22T10:08:08;8.52;;;8.02;;
22995;SDS011;11664;49.774;8.650;2022-07-22T10:10:35;9.63;;;9.05;;
22995;SDS011;11664;49.774;8.650;2022-07-22T10:13:02;7.70;;;7.28;;
22995;SDS011;11664;49.774;8.650;2022-07-22T10:15:29;5.47;;;5.20;;
22995;SDS011;11664;49.774;8.650;2022-07-22T10:17:58;4.95;;;4.75;;
22995;SDS011;11664;49.774;8.650;2022-07-22T10:20:26;6.40;;;6.07;;
22995;SDS011;11664;49.774;8.650;2022-07-22T10:25:19;9.10;;;8.50;;
22995;SDS011;11664;49.774;8.650;2022-07-22T10:27:49;8.30;;;7.90;;
22995;SDS011;11664;49.774;8.650;2022-07-22T10:30:17;5.75;;;5.45;;
22995;SDS011;11664;49.774;8.650;2022-07-22T10:32:44;5.13;;;3.70;;
22995;SDS011;11664;49.774;8.650;2022-07-22T10:48:19;4.53;;;4.18;;
22995;SDS011;11664;49.774;8.650;2022-07-22T10:55:57;5.05;;;3.28;;
22995;SDS011;11664;49.774;8.650;2022-07-22T11:00:57;4.70;;;4.47;;
22995;SDS011;11664;49.774;8.650;2022-07-22T11:03:24;4.65;;;4.43;;
22995;SDS011;11664;49.774;8.650;2022-07-22T11:05:50;7.70;;;7.20;;
22995;SDS011;11664;49.774;8.650;2022-07-22T11:08:16;10.63;;;9.98;;
22995;SDS011;11664;49.774;8.650;2022-07-22T11:10:47;9.70;;;9.20;;
22995;SDS011;11664;49.774;8.650;2022-07-22T11:13:29;8.47;;;8.07;;
22995;SDS011;11664;49.774;8.650;2022-07-22T11:21:11;7.47;;;6.97;;
22995;SDS011;11664;49.774;8.650;2022-07-22T11:23:40;5.88;;;5.55;;
22995;SDS011;11664;49.774;8.650;2022-07-22T11:26:06;4.72;;;4.45;;
22995;SDS011;11664;49.774;8.650;2022-07-22T11:28:38;6.70;;;6.38;;
22995;SDS011;11664;49.774;8.650;2022-07-22T11:31:05;4.85;;;4.55;;
22995;SDS011;11664;49.774;8.650;2022-07-22T11:33:31;5.00;;;4.70;;
22995;SDS011;11664;49.774;8.650;2022-07-22T11:36:07;4.38;;;4.18;;
22995;SDS011;11664;49.774;8.650;2022-07-22T11:38:44;6.15;;;5.53;;
22995;SDS011;11664;49.774;8.650;2022-07-22T11:41:17;11.02;;;6.00;;
22995;SDS011;11664;49.774;8.650;2022-07-22T11:43:46;7.10;;;6.65;;
22995;SDS011;11664;49.774;8.650;2022-07-22T11:46:13;6.63;;;6.22;;
22995;SDS011;11664;49.774;8.650;2022-07-22T11:48:40;4.07;;;3.78;;
22995;SDS011;11664;49.774;8.650;2022-07-22T11:51:07;3.40;;;3.25;;
22995;SDS011;11664;49.774;8.650;2022-07-22T11:53:35;6.00;;;5.32;;
22995;SDS011;11664;49.774;8.650;2022-07-22T11:56:03;3.50;;;3.30;;
22995;SDS011;11664;49.774;8.650;2022-07-22T11:58:33;4.85;;;4.30;;
22995;SDS011;11664;49.774;8.650;2022-07-22T12:01:04;4.50;;;4.30;;
22995;SDS011;11664;49.774;8.650;2022-07-22T12:03:32;4.30;;;4.10;;
22995;SDS011;11664;49.774;8.650;2022-07-22T12:06:00;4.60;;;4.20;;
22995;SDS011;11664;49.774;8.650;2022-07-22T12:08:27;5.43;;;4.97;;
22995;SDS011;11664;49.774;8.650;2022-07-22T12:10:54;4.68;;;4.25;;
22995;SDS011;11664;49.774;8.650;2022-07-22T12:13:21;5.32;;;5.03;;
22995;SDS011;11664;49.774;8.650;2022-07-22T12:15:52;5.07;;;4.67;;
22995;SDS011;11664;49.774;8.650;2022-07-22T12:18:21;4.47;;;4.07;;
22995;SDS011;11664;49.774;8.650;2022-07-22T12:20:48;3.65;;;3.45;;
22995;SDS011;11664;49.774;8.650;2022-07-22T12:23:14;3.92;;;3.63;;
22995;SDS011;11664;49.774;8.650;2022-07-22T12:25:53;3.67;;;3.47;;
22995;SDS011;11664;49.774;8.650;2022-07-22T12:28:20;3.47;;;3.28;;
22995;SDS011;11664;49.774;8.650;2022-07-22T12:30:46;6.60;;;6.20;;
22995;SDS011;11664;49.774;8.650;2022-07-22T12:33:14;8.93;;;8.43;;
22995;SDS011;11664;49.774;8.650;2022-07-22T12:35:40;4.85;;;4.47;;
22995;SDS011;11664;49.774;8.650;2022-07-22T12:38:07;3.83;;;3.63;;
22995;SDS011;11664;49.774;8.650;2022-07-22T12:40:33;10.88;;;10.27;;
22995;SDS011;11664;49.774;8.650;2022-07-22T12:43:04;13.25;;;12.55;;
22995;SDS011;11664;49.774;8.650;2022-07-22T12:45:32;12.00;;;11.30;;
22995;SDS011;11664;49.774;8.650;2022-07-22T12:53:05;6.93;;;6.53;;
22995;SDS011;11664;49.774;8.650;2022-07-22T12:55:41;7.15;;;6.75;;
22995;SDS011;11664;49.774;8.650;2022-07-22T12:58:11;8.32;;;7.80;;
22995;SDS011;11664;49.774;8.650;2022-07-22T13:00:39;7.55;;;7.05;;
22995;SDS011;11664;49.774;8.650;2022-07-22T13:03:06;7.53;;;7.13;;
22995;SDS011;11664;49.774;8.650;2022-07-22T13:05:32;4.93;;;4.55;;
22995;SDS011;11664;49.774;8.650;2022-07-22T13:07:59;3.95;;;3.75;;
22995;SDS011;11664;49.774;8.650;2022-07-22T13:10:25;4.28;;;4.05;;
22995;SDS011;11664;49.774;8.650;2022-07-22T13:12:51;4.38;;;3.97;;
22995;SDS011;11664;49.774;8.650;2022-07-22T13:15:17;5.75;;;5.30;;
22995;SDS011;11664;49.774;8.650;2022-07-22T13:17:44;6.22;;;5.82;;
22995;SDS011;11664;49.774;8.650;2022-07-22T13:20:10;8.80;;;7.75;;
22995;SDS011;11664;49.774;8.650;2022-07-22T13:22:38;6.85;;;6.35;;
22995;SDS011;11664;49.774;8.650;2022-07-22T13:25:04;7.22;;;6.72;;
22995;SDS011;11664;49.774;8.650;2022-07-22T13:27:31;5.15;;;4.75;;
22995;SDS011;11664;49.774;8.650;2022-07-22T13:29:56;7.32;;;6.82;;
22995;SDS011;11664;49.774;8.650;2022-07-22T13:32:22;5.03;;;4.72;;
22995;SDS011;11664;49.774;8.650;2022-07-22T13:34:48;5.30;;;5.00;;
22995;SDS011;11664;49.774;8.650;2022-07-22T13:37:13;4.72;;;4.43;;
22995;SDS011;11664;49.774;8.650;2022-07-22T13:39:39;5.53;;;5.22;;
22995;SDS011;11664;49.774;8.650;2022-07-22T13:42:06;6.10;;;5.80;;
22995;SDS011;11664;49.774;8.650;2022-07-22T13:44:32;7.55;;;6.95;;
22995;SDS011;11664;49.774;8.650;2022-07-22T13:46:59;5.78;;;5.47;;
22995;SDS011;11664;49.774;8.650;2022-07-22T13:49:26;6.53;;;6.20;;
22995;SDS011;11664;49.774;8.650;2022-07-22T13:51:51;5.80;;;5.45;;
22995;SDS011;11664;49.774;8.650;2022-07-22T13:54:17;5.15;;;4.90;;
22995;SDS011;11664;49.774;8.650;2022-07-22T13:56:43;4.07;;;3.80;;
22995;SDS011;11664;49.774;8.650;2022-07-22T13:59:12;3.78;;;3.58;;
22995;SDS011;11664;49.774;8.650;2022-07-22T14:01:38;4.40;;;4.03;;
22995;SDS011;11664;49.774;8.650;2022-07-22T14:04:03;3.88;;;3.67;;
22995;SDS011;11664;49.774;8.650;2022-07-22T14:06:30;3.92;;;3.70;;
22995;SDS011;11664;49.774;8.650;2022-07-22T14:08:56;4.00;;;3.65;;
22995;SDS011;11664;49.774;8.650;2022-07-22T14:11:22;4.22;;;4.00;;
22995;SDS011;11664;49.774;8.650;2022-07-22T14:13:47;5.88;;;5.38;;
22995;SDS011;11664;49.774;8.650;2022-07-22T14:16:13;5.45;;;4.75;;
22995;SDS011;11664;49.774;8.650;2022-07-22T14:18:57;4.63;;;4.32;;
22995;SDS011;11664;49.774;8.650;2022-07-22T14:21:23;4.45;;;4.07;;
22995;SDS011;11664;49.774;8.650;2022-07-22T14:23:49;3.80;;;3.50;;
22995;SDS011;11664;49.774;8.650;2022-07-22T14:26:14;6.80;;;4.63;;
22995;SDS011;11664;49.774;8.650;2022-07-22T14:28:40;3.92;;;3.63;;
22995;SDS011;11664;49.774;8.650;2022-07-22T14:31:05;4.30;;;3.92;;
22995;SDS011;11664;49.774;8.650;2022-07-22T14:33:31;4.22;;;4.00;;
22995;SDS011;11664;49.774;8.650;2022-07-22T14:35:56;4.20;;;3.80;;
22995;SDS011;11664;49.774;8.650;2022-07-22T14:38:22;4.93;;;3.85;;
22995;SDS011;11664;49.774;8.650;2022-07-22T14:40:48;4.45;;;4.15;;
22995;SDS011;11664;49.774;8.650;2022-07-22T14:43:13;4.05;;;3.75;;
22995;SDS011;11664;49.774;8.650;2022-07-22T14:45:39;3.67;;;3.47;;
22995;SDS011;11664;49.774;8.650;2022-07-22T14:48:05;3.92;;;3.65;;
22995;SDS011;11664;49.774;8.650;2022-07-22T14:50:31;4.32;;;4.05;;
22995;SDS011;11664;49.774;8.650;2022-07-22T14:52:56;4.38;;;3.90;;
22995;SDS011;11664;49.774;8.650;2022-07-22T14:55:22;3.75;;;3.45;;
22995;SDS011;11664;49.774;8.650;2022-07-22T14:57:47;4.32;;;4.03;;
22995;SDS011;11664;49.774;8.650;2022-07-22T15:00:13;5.25;;;4.50;;
22995;SDS011;11664;49.774;8.650;2022-07-22T15:02:39;3.55;;;3.35;;
22995;SDS011;11664;49.774;8.650;2022-07-22T15:05:05;3.97;;;3.78;;
22995;SDS011;11664;49.774;8.650;2022-07-22T15:07:31;5.15;;;4.80;;
22995;SDS011;11664;49.774;8.650;2022-07-22T15:09:57;3.83;;;3.63;;
22995;SDS011;11664;49.774;8.650;2022-07-22T15:12:23;3.97;;;3.78;;